createdAt,value
2017-12-30T00:01:22.501Z,2.30
2017-12-30T00:03:50.680Z,2.40
2017-12-30T00:06:18.820Z,2.50
2017-12-30T00:08:47.797Z,2.50
2017-12-30T00:11:15.927Z,2.50
2017-12-30T00:13:44.087Z,2.60
2017-12-30T00:16:12.423Z,2.60
2017-12-30T00:18:40.582Z,2.70
2017-12-30T00:21:08.755Z,2.80
2017-12-30T00:23:36.914Z,2.80
2017-12-30T00:26:05.068Z,2.80
2017-12-30T00:28:33.247Z,2.70
2017-12-30T00:31:01.374Z,2.80
2017-12-30T00:33:29.529Z,2.90
2017-12-30T00:35:57.688Z,2.80
2017-12-30T00:38:26.018Z,2.80
2017-12-30T00:40:54.182Z,2.90
2017-12-30T00:43:22.348Z,2.90
2017-12-30T00:45:50.498Z,3.00
2017-12-30T00:48:18.655Z,3.00
2017-12-30T00:50:46.793Z,3.10
2017-12-30T00:53:14.990Z,3.10
2017-12-30T00:55:43.133Z,3.10
2017-12-30T00:58:12.069Z,2.90
2017-12-30T01:00:40.210Z,2.90
2017-12-30T01:03:08.383Z,2.80
2017-12-30T01:05:37.276Z,2.90
2017-12-30T01:08:05.554Z,2.90
2017-12-30T01:10:34.454Z,2.80
2017-12-30T01:13:03.382Z,2.80
2017-12-30T01:15:31.523Z,2.80
2017-12-30T01:17:59.692Z,2.80
2017-12-30T01:20:28.588Z,2.70
2017-12-30T01:22:56.726Z,2.70
2017-12-30T01:25:24.898Z,2.80
2017-12-30T01:27:53.832Z,2.70
2017-12-30T01:30:22.034Z,2.70
2017-12-30T01:32:50.590Z,2.70
2017-12-30T01:35:18.748Z,2.70
2017-12-30T01:37:46.905Z,2.70
2017-12-30T01:40:15.828Z,2.80
2017-12-30T01:42:43.963Z,2.80
2017-12-30T01:45:12.897Z,2.80
2017-12-30T01:47:41.042Z,2.80
2017-12-30T01:50:09.974Z,2.80
2017-12-30T01:52:38.125Z,2.80
2017-12-30T01:55:06.291Z,2.70
2017-12-30T01:57:35.194Z,2.70
2017-12-30T02:00:03.808Z,2.70
2017-12-30T02:02:37.612Z,2.80
2017-12-30T02:05:05.767Z,2.80
2017-12-30T02:07:33.926Z,2.80
2017-12-30T02:10:02.253Z,2.80
2017-12-30T02:12:30.578Z,2.70
2017-12-30T02:14:58.747Z,2.70
2017-12-30T02:17:27.658Z,2.80
2017-12-30T02:19:57.709Z,2.80
2017-12-30T02:22:25.845Z,2.80
2017-12-30T02:24:54.008Z,2.80
2017-12-30T02:27:22.905Z,2.90
2017-12-30T02:29:51.866Z,2.80
2017-12-30T02:32:20.024Z,2.80
2017-12-30T02:34:48.189Z,2.80
2017-12-30T02:37:16.329Z,2.80
2017-12-30T02:39:45.281Z,2.80
2017-12-30T02:42:14.206Z,2.80
2017-12-30T02:44:42.393Z,2.80
2017-12-30T02:47:10.566Z,2.80
2017-12-30T02:49:38.724Z,2.80
2017-12-30T02:52:07.624Z,2.80
2017-12-30T02:54:35.789Z,2.80
2017-12-30T02:57:04.876Z,2.80
2017-12-30T02:59:33.063Z,2.80
2017-12-30T03:02:01.305Z,2.80
2017-12-30T03:04:29.624Z,2.80
2017-12-30T03:06:57.774Z,2.80
2017-12-30T03:09:26.744Z,2.90
2017-12-30T03:11:54.889Z,2.90
2017-12-30T03:14:23.056Z,2.90
2017-12-30T03:16:51.199Z,2.90
2017-12-30T03:19:20.112Z,3.00
2017-12-30T03:21:49.024Z,3.00
2017-12-30T03:24:17.184Z,3.00
2017-12-30T03:26:45.332Z,3.00
2017-12-30T03:29:14.257Z,3.00
2017-12-30T03:31:42.612Z,3.00
2017-12-30T03:34:10.778Z,3.00
2017-12-30T03:36:38.935Z,3.00
2017-12-30T03:39:07.873Z,3.00
2017-12-30T03:41:36.036Z,3.00
2017-12-30T03:44:04.197Z,3.10
2017-12-30T03:46:33.108Z,3.10
2017-12-30T03:49:01.366Z,3.10
2017-12-30T03:51:29.620Z,3.00
2017-12-30T03:53:58.564Z,3.00
2017-12-30T03:56:26.695Z,3.00
2017-12-30T03:58:54.873Z,3.00
2017-12-30T04:01:23.782Z,3.00
2017-12-30T04:03:51.963Z,3.00
2017-12-30T04:06:20.107Z,3.00
2017-12-30T04:08:49.073Z,3.10
2017-12-30T04:11:17.224Z,3.10
2017-12-30T04:13:45.394Z,3.10
2017-12-30T04:16:13.534Z,3.10
2017-12-30T04:18:41.705Z,3.10
2017-12-30T04:21:10.612Z,3.10
2017-12-30T04:23:38.774Z,3.10
2017-12-30T04:26:07.815Z,3.10
2017-12-30T04:28:35.970Z,3.20
2017-12-30T04:31:04.160Z,3.20
2017-12-30T04:33:32.325Z,3.20
2017-12-30T04:36:00.484Z,3.30
2017-12-30T04:38:28.624Z,3.30
2017-12-30T04:40:57.545Z,3.30
2017-12-30T04:43:25.689Z,3.30
2017-12-30T04:45:54.606Z,3.40
2017-12-30T04:48:22.764Z,3.30
2017-12-30T04:50:50.932Z,3.40
2017-12-30T04:53:19.832Z,3.50
2017-12-30T04:55:47.989Z,3.50
2017-12-30T04:58:16.155Z,3.60
2017-12-30T05:00:45.109Z,3.50
2017-12-30T05:03:13.268Z,3.50
2017-12-30T05:05:41.437Z,3.50
2017-12-30T05:08:09.578Z,3.60
2017-12-30T05:10:38.508Z,3.60
2017-12-30T05:13:06.691Z,3.60
2017-12-30T05:15:34.861Z,3.70
2017-12-30T05:18:03.030Z,3.70
2017-12-30T05:20:31.209Z,3.90
2017-12-30T05:22:59.362Z,3.90
2017-12-30T05:25:27.537Z,3.90
2017-12-30T05:27:55.701Z,4.00
2017-12-30T05:30:23.969Z,3.90
2017-12-30T05:32:52.865Z,3.90
2017-12-30T05:35:21.028Z,3.80
2017-12-30T05:37:49.919Z,3.90
2017-12-30T05:40:18.868Z,3.90
2017-12-30T05:42:47.038Z,3.90
2017-12-30T05:45:15.193Z,4.00
2017-12-30T05:47:43.350Z,4.00
2017-12-30T05:50:11.505Z,4.10
2017-12-30T05:52:40.430Z,4.10
2017-12-30T05:55:09.738Z,4.10
2017-12-30T05:57:37.873Z,4.00
2017-12-30T06:00:06.865Z,3.90
2017-12-30T06:02:37.831Z,3.90
2017-12-30T06:05:06.002Z,3.90
2017-12-30T06:07:34.149Z,3.80
2017-12-30T06:10:03.095Z,3.80
2017-12-30T06:12:31.240Z,3.80
2017-12-30T06:14:59.391Z,3.80
2017-12-30T06:17:28.290Z,3.80
2017-12-30T06:19:57.226Z,3.70
2017-12-30T06:22:25.363Z,3.70
2017-12-30T06:24:54.291Z,3.70
2017-12-30T06:27:22.436Z,3.70
2017-12-30T06:29:50.598Z,3.80
2017-12-30T06:32:19.496Z,3.70
2017-12-30T06:34:47.684Z,3.70
2017-12-30T06:37:16.695Z,3.70
2017-12-30T06:39:44.860Z,3.70
2017-12-30T06:42:13.023Z,3.80
2017-12-30T06:44:41.176Z,3.80
2017-12-30T06:47:10.102Z,3.80
2017-12-30T06:49:39.204Z,3.80
2017-12-30T06:52:07.353Z,3.90
2017-12-30T06:54:35.529Z,3.80
2017-12-30T06:57:03.668Z,3.90
2017-12-30T06:59:32.645Z,4.00
2017-12-30T07:02:00.784Z,4.00
2017-12-30T07:04:28.944Z,4.00
2017-12-30T07:06:57.081Z,4.00
2017-12-30T07:09:26.088Z,4.00
2017-12-30T07:11:54.241Z,4.10
2017-12-30T07:14:23.021Z,4.00
2017-12-30T07:16:51.588Z,4.00
2017-12-30T07:19:19.764Z,4.00
2017-12-30T07:21:47.923Z,4.00
2017-12-30T07:24:16.089Z,4.00
2017-12-30T07:26:44.645Z,3.90
2017-12-30T07:29:12.947Z,4.00
2017-12-30T07:31:41.100Z,4.00
2017-12-30T07:34:09.276Z,4.00
2017-12-30T07:36:37.433Z,4.00
2017-12-30T07:39:06.371Z,4.00
2017-12-30T07:41:34.507Z,3.90
2017-12-30T07:44:03.436Z,4.00
2017-12-30T07:46:31.588Z,4.00
2017-12-30T07:48:59.730Z,4.10
2017-12-30T07:51:28.665Z,4.00
2017-12-30T07:53:56.822Z,4.00
2017-12-30T07:56:25.746Z,4.00
2017-12-30T07:58:53.890Z,3.90
2017-12-30T08:01:22.043Z,4.00
2017-12-30T08:03:50.236Z,4.00
2017-12-30T08:06:18.380Z,4.00
2017-12-30T08:08:46.532Z,4.00
2017-12-30T08:11:14.706Z,4.00
2017-12-30T08:13:42.877Z,4.00
2017-12-30T08:16:11.048Z,4.00
2017-12-30T08:18:39.190Z,4.10
2017-12-30T08:21:08.114Z,4.10
2017-12-30T08:23:36.275Z,4.10
2017-12-30T08:26:04.540Z,4.10
2017-12-30T08:28:32.690Z,4.20
2017-12-30T08:31:01.657Z,4.20
2017-12-30T08:33:29.817Z,4.20
2017-12-30T08:35:57.985Z,4.30
2017-12-30T08:38:26.943Z,4.30
2017-12-30T08:40:55.121Z,4.30
2017-12-30T08:43:23.253Z,4.40
2017-12-30T08:45:51.451Z,4.40
2017-12-30T08:48:20.378Z,4.50
2017-12-30T08:50:48.611Z,4.50
2017-12-30T08:53:17.524Z,4.60
2017-12-30T08:55:46.495Z,4.60
2017-12-30T08:58:14.632Z,4.60
2017-12-30T09:00:42.811Z,4.60
2017-12-30T09:03:11.081Z,4.60
2017-12-30T09:05:43.313Z,4.50
2017-12-30T09:08:12.238Z,4.40
2017-12-30T09:10:41.666Z,4.40
2017-12-30T09:13:10.034Z,4.30
2017-12-30T09:15:38.324Z,4.30
2017-12-30T09:18:07.497Z,4.20
2017-12-30T09:20:36.591Z,4.10
2017-12-30T09:23:05.121Z,4.10
2017-12-30T09:25:35.066Z,4.10
2017-12-30T09:28:03.764Z,4.00
2017-12-30T09:30:31.920Z,4.00
2017-12-30T09:33:00.093Z,3.90
2017-12-30T09:35:29.103Z,3.80
2017-12-30T09:37:57.249Z,3.70
2017-12-30T09:40:25.472Z,3.70
2017-12-30T09:42:53.649Z,3.60
2017-12-30T09:45:22.010Z,3.50
2017-12-30T09:47:50.408Z,3.40
2017-12-30T09:50:18.863Z,3.40
2017-12-30T09:52:47.426Z,3.40
2017-12-30T09:55:16.213Z,3.40
2017-12-30T09:57:45.552Z,3.30
2017-12-30T10:00:13.914Z,3.30
2017-12-30T10:02:45.117Z,3.30
2017-12-30T10:05:13.730Z,3.30
2017-12-30T10:07:42.037Z,3.30
2017-12-30T10:10:10.508Z,3.30
2017-12-30T10:12:38.931Z,3.30
2017-12-30T10:15:07.440Z,3.40
2017-12-30T10:17:37.026Z,3.40
2017-12-30T10:20:05.407Z,3.40
2017-12-30T10:22:33.716Z,3.50
2017-12-30T10:25:02.628Z,3.50
2017-12-30T10:27:30.899Z,3.50
2017-12-30T10:30:00.123Z,3.60
2017-12-30T10:32:28.720Z,3.50
2017-12-30T10:34:57.316Z,3.60
2017-12-30T10:37:26.563Z,3.60
2017-12-30T10:39:54.982Z,3.60
2017-12-30T10:42:23.433Z,3.50
2017-12-30T10:44:51.916Z,3.50
2017-12-30T10:47:21.210Z,3.50
2017-12-30T10:49:49.688Z,3.50
2017-12-30T10:52:18.094Z,3.60
2017-12-30T10:54:46.355Z,3.60
2017-12-30T10:57:15.523Z,3.70
2017-12-30T10:59:44.258Z,3.70
2017-12-30T11:02:12.744Z,3.60
2017-12-30T11:04:41.244Z,3.60
2017-12-30T11:07:09.783Z,3.60
2017-12-30T11:09:38.689Z,3.60
2017-12-30T11:12:08.016Z,3.80
2017-12-30T11:14:37.060Z,3.80
2017-12-30T11:17:06.263Z,3.70
2017-12-30T11:19:34.851Z,3.70
2017-12-30T11:22:03.659Z,3.70
2017-12-30T11:24:32.194Z,3.80
2017-12-30T11:27:01.984Z,3.70
2017-12-30T11:29:30.825Z,3.70
2017-12-30T11:31:59.589Z,3.60
2017-12-30T11:34:28.138Z,3.50
2017-12-30T11:36:58.165Z,3.60
2017-12-30T11:39:27.345Z,3.60
2017-12-30T11:41:55.735Z,3.60
2017-12-30T11:44:24.496Z,3.60
2017-12-30T11:46:53.175Z,3.70
2017-12-30T11:49:21.758Z,3.70
2017-12-30T11:51:50.804Z,3.80
2017-12-30T11:54:19.601Z,3.80
2017-12-30T11:56:48.152Z,3.90
2017-12-30T11:59:16.574Z,3.90
2017-12-30T12:01:45.536Z,3.80
2017-12-30T12:04:14.073Z,3.90
2017-12-30T12:06:42.278Z,3.90
2017-12-30T12:09:11.053Z,3.90
2017-12-30T12:11:40.087Z,4.00
2017-12-30T12:14:08.366Z,4.10
2017-12-30T12:16:39.742Z,4.00
2017-12-30T12:19:09.294Z,4.00
2017-12-30T12:21:38.004Z,4.10
2017-12-30T12:24:07.745Z,4.20
2017-12-30T12:26:36.438Z,4.20
2017-12-30T12:29:05.027Z,4.20
2017-12-30T12:31:33.707Z,4.20
2017-12-30T12:34:02.139Z,4.30
2017-12-30T12:36:31.606Z,4.30
2017-12-30T12:39:00.275Z,4.40
2017-12-30T12:41:29.293Z,4.50
2017-12-30T12:43:58.894Z,4.50
2017-12-30T12:46:27.812Z,4.50
2017-12-30T12:48:56.895Z,4.60
2017-12-30T12:51:25.952Z,4.70
2017-12-30T12:53:54.372Z,4.70
2017-12-30T12:56:23.585Z,4.70
2017-12-30T12:58:52.311Z,4.60
2017-12-30T13:01:22.936Z,4.70
2017-12-30T13:03:52.681Z,4.80
2017-12-30T13:06:22.003Z,4.80
2017-12-30T13:08:54.168Z,4.90
2017-12-30T13:11:22.836Z,4.90
2017-12-30T13:13:52.072Z,4.90
2017-12-30T13:16:20.711Z,4.90
2017-12-30T13:18:50.924Z,5.00
2017-12-30T13:21:19.849Z,5.10
2017-12-30T13:23:48.066Z,5.10
2017-12-30T13:26:16.256Z,5.10
2017-12-30T13:28:44.599Z,5.20
2017-12-30T13:31:12.772Z,5.20
2017-12-30T13:33:41.737Z,5.40
2017-12-30T13:36:09.917Z,5.40
2017-12-30T13:38:38.074Z,5.40
2017-12-30T13:41:06.310Z,5.40
2017-12-30T13:43:34.517Z,5.30
2017-12-30T13:46:02.714Z,5.30
2017-12-30T13:48:30.862Z,5.30
2017-12-30T13:50:59.043Z,5.30
2017-12-30T13:53:28.073Z,5.40
2017-12-30T13:55:56.224Z,5.40
2017-12-30T13:58:24.396Z,5.50
2017-12-30T14:00:53.290Z,5.50
2017-12-30T14:03:21.459Z,5.50
2017-12-30T14:05:49.588Z,5.60
2017-12-30T14:08:17.744Z,5.60
2017-12-30T14:10:45.905Z,5.60
2017-12-30T14:13:14.062Z,5.70
2017-12-30T14:15:42.208Z,5.70
2017-12-30T14:18:11.149Z,5.90
2017-12-30T14:20:39.265Z,5.90
2017-12-30T14:23:08.214Z,6.10
2017-12-30T14:25:36.351Z,6.10
2017-12-30T14:28:04.880Z,6.20
2017-12-30T14:30:33.011Z,6.20
2017-12-30T14:33:02.339Z,6.20
2017-12-30T14:35:30.548Z,6.20
2017-12-30T14:37:58.711Z,6.30
2017-12-30T14:40:26.841Z,6.40
2017-12-30T14:42:55.029Z,6.60
2017-12-30T14:45:23.156Z,6.60
2017-12-30T14:47:51.320Z,6.60
2017-12-30T14:50:19.482Z,6.60
2017-12-30T14:52:47.624Z,6.70
2017-12-30T14:55:15.770Z,6.80
2017-12-30T14:57:43.936Z,6.80
2017-12-30T15:00:12.850Z,6.90
2017-12-30T15:02:41.021Z,6.90
2017-12-30T15:05:09.162Z,6.90
2017-12-30T15:07:38.105Z,7.00
2017-12-30T15:10:06.235Z,7.00
2017-12-30T15:12:35.186Z,7.10
2017-12-30T15:15:03.330Z,7.10
2017-12-30T15:17:31.508Z,7.10
2017-12-30T15:19:59.656Z,7.20
2017-12-30T15:22:28.585Z,7.20
2017-12-30T15:24:56.756Z,7.20
2017-12-30T15:27:24.927Z,7.30
2017-12-30T15:29:53.079Z,7.40
2017-12-30T15:32:22.006Z,7.10
2017-12-30T15:34:52.881Z,7.30
2017-12-30T15:37:21.061Z,7.30
2017-12-30T15:39:49.212Z,7.30
2017-12-30T15:42:18.131Z,7.60
2017-12-30T15:44:46.283Z,7.50
2017-12-30T15:47:15.804Z,7.60
2017-12-30T15:49:43.954Z,7.60
2017-12-30T15:52:12.121Z,7.60
2017-12-30T15:54:40.285Z,7.70
2017-12-30T15:57:08.452Z,7.70
2017-12-30T15:59:36.603Z,7.70
2017-12-30T16:02:05.534Z,7.80
2017-12-30T16:04:35.100Z,7.80
2017-12-30T16:07:04.021Z,7.90
2017-12-30T16:09:32.181Z,7.90
2017-12-30T16:12:00.326Z,8.00
2017-12-30T16:14:29.260Z,8.30
2017-12-30T16:16:57.413Z,8.20
2017-12-30T16:19:25.609Z,8.40
2017-12-30T16:21:53.747Z,8.40
2017-12-30T16:26:51.335Z,8.80
2017-12-30T16:29:19.510Z,8.80
2017-12-30T16:31:47.681Z,8.80
2017-12-30T16:34:15.858Z,8.90
2017-12-30T16:36:44.011Z,8.90
2017-12-30T16:39:12.195Z,9.10
2017-12-30T16:41:40.352Z,9.30
2017-12-30T16:44:08.541Z,9.30
2017-12-30T16:46:36.703Z,9.50
2017-12-30T16:49:05.656Z,9.50
2017-12-30T16:51:33.807Z,9.50
2017-12-30T16:54:02.383Z,9.50
2017-12-30T16:56:30.680Z,9.40
2017-12-30T16:58:58.877Z,9.60
2017-12-30T17:01:27.050Z,9.60
2017-12-30T17:03:55.240Z,9.60
2017-12-30T17:06:23.414Z,9.80
2017-12-30T17:08:51.584Z,9.80
2017-12-30T17:11:19.748Z,9.80
2017-12-30T17:13:47.931Z,9.70
2017-12-30T17:16:16.097Z,9.70
2017-12-30T17:18:44.249Z,9.70
2017-12-30T17:21:12.398Z,9.70
2017-12-30T17:23:40.570Z,9.70
2017-12-30T17:26:08.715Z,9.80
2017-12-30T17:28:37.686Z,9.80
2017-12-30T17:31:05.852Z,9.80
2017-12-30T17:33:34.018Z,9.80
2017-12-30T17:36:02.700Z,9.80
2017-12-30T17:38:31.714Z,9.80
2017-12-30T17:40:59.864Z,9.80
2017-12-30T17:43:28.046Z,9.70
2017-12-30T17:45:56.204Z,9.70
2017-12-30T17:48:24.378Z,9.70
2017-12-30T17:50:52.535Z,9.80
2017-12-30T17:53:20.710Z,9.80
2017-12-30T17:55:48.877Z,9.80
2017-12-30T17:58:17.809Z,9.90
2017-12-30T18:00:45.969Z,9.90
2017-12-30T18:03:14.159Z,9.90
2017-12-30T18:05:42.314Z,9.90
2017-12-30T18:08:10.486Z,9.90
2017-12-30T18:10:38.655Z,10.00
2017-12-30T18:13:06.846Z,10.00
2017-12-30T18:15:35.790Z,10.10
2017-12-30T18:18:04.907Z,10.00
2017-12-30T18:20:33.163Z,10.00
2017-12-30T18:23:02.121Z,10.10
2017-12-30T18:25:30.355Z,10.10
2017-12-30T18:27:58.550Z,10.20
2017-12-30T18:30:26.698Z,10.20
2017-12-30T18:32:54.874Z,10.10
2017-12-30T18:35:23.036Z,10.10
2017-12-30T18:37:51.953Z,10.00
2017-12-30T18:40:20.171Z,10.00
2017-12-30T18:42:48.338Z,10.00
2017-12-30T18:45:16.542Z,10.00
2017-12-30T18:47:45.482Z,10.00
2017-12-30T18:50:13.659Z,10.00
2017-12-30T18:52:41.826Z,10.00
2017-12-30T18:55:10.009Z,10.10
2017-12-30T18:57:38.166Z,10.10
2017-12-30T19:00:06.367Z,10.10
2017-12-30T19:02:39.014Z,9.90
2017-12-30T19:05:07.183Z,9.90
2017-12-30T19:07:35.324Z,9.90
2017-12-30T19:10:03.494Z,10.00
2017-12-30T19:12:31.648Z,9.80
2017-12-30T19:14:59.816Z,9.90
2017-12-30T19:17:27.954Z,9.90
2017-12-30T19:19:56.148Z,10.00
2017-12-30T19:22:25.227Z,10.00
2017-12-30T19:24:53.393Z,9.90
2017-12-30T19:27:21.546Z,9.90
2017-12-30T19:29:50.502Z,9.90
2017-12-30T19:32:19.476Z,10.10
2017-12-30T19:34:47.660Z,10.10
2017-12-30T19:37:15.837Z,10.20
2017-12-30T19:39:44.302Z,10.20
2017-12-30T19:42:12.681Z,10.30
2017-12-30T19:44:41.948Z,10.30
2017-12-30T19:47:10.343Z,10.30
2017-12-30T19:49:38.905Z,10.40
2017-12-30T19:52:07.268Z,10.30
2017-12-30T19:54:35.761Z,10.30
2017-12-30T19:57:05.857Z,10.40
2017-12-30T19:59:34.549Z,10.40
2017-12-30T20:02:03.006Z,10.40
2017-12-30T20:04:31.532Z,10.30
2017-12-30T20:07:00.181Z,10.30
2017-12-30T20:09:28.628Z,10.30
2017-12-30T20:11:57.771Z,10.20
2017-12-30T20:14:26.472Z,10.10
2017-12-30T20:16:54.920Z,10.30
2017-12-30T20:19:23.152Z,10.20
2017-12-30T20:21:51.620Z,10.30
2017-12-30T20:24:20.235Z,10.30
2017-12-30T20:26:48.565Z,10.30
2017-12-30T20:29:16.860Z,10.30
2017-12-30T20:31:45.159Z,10.30
2017-12-30T20:34:13.654Z,10.30
2017-12-30T20:36:42.114Z,10.30
2017-12-30T20:39:10.513Z,10.20
2017-12-30T20:41:39.013Z,10.20
2017-12-30T20:44:08.032Z,10.20
2017-12-30T20:46:38.088Z,10.30
2017-12-30T20:49:06.735Z,10.40
2017-12-30T20:51:35.124Z,10.50
2017-12-30T20:54:05.446Z,10.50
2017-12-30T20:56:33.997Z,10.50
2017-12-30T20:59:04.957Z,10.60
2017-12-30T21:01:33.276Z,10.60
2017-12-30T21:04:03.374Z,10.60
2017-12-30T21:06:31.662Z,10.60
2017-12-30T21:09:00.656Z,10.60
2017-12-30T21:11:29.176Z,10.60
2017-12-30T21:13:58.378Z,10.70
2017-12-30T21:16:27.861Z,10.80
2017-12-30T21:18:56.101Z,10.80
2017-12-30T21:21:25.181Z,10.70
2017-12-30T21:23:53.782Z,10.80
2017-12-30T21:26:23.024Z,10.90
2017-12-30T21:28:51.495Z,10.80
2017-12-30T21:31:20.164Z,10.90
2017-12-30T21:33:50.423Z,10.80
2017-12-30T21:36:22.814Z,10.80
2017-12-30T21:38:51.514Z,10.80
2017-12-30T21:41:20.906Z,10.90
2017-12-30T21:43:50.686Z,10.80
2017-12-30T21:46:19.682Z,10.80
2017-12-30T21:48:47.973Z,10.70
2017-12-30T21:51:16.479Z,10.60
2017-12-30T21:53:44.807Z,10.60
2017-12-30T21:56:13.344Z,10.50
2017-12-30T21:58:42.628Z,10.60
2017-12-30T22:01:11.054Z,10.50
2017-12-30T22:03:40.032Z,10.60
2017-12-30T22:06:09.351Z,10.50
2017-12-30T22:08:37.532Z,10.50
2017-12-30T22:11:05.759Z,10.50
2017-12-30T22:13:33.920Z,10.50
2017-12-30T22:16:02.306Z,10.50
2017-12-30T22:18:31.249Z,10.50
2017-12-30T22:21:00.181Z,10.50
2017-12-30T22:23:29.308Z,10.50
2017-12-30T22:25:57.519Z,10.50
2017-12-30T22:28:26.616Z,10.50
2017-12-30T22:30:55.013Z,10.40
2017-12-30T22:33:25.084Z,10.40
2017-12-30T22:35:53.511Z,10.50
2017-12-30T22:38:21.651Z,10.60
2017-12-30T22:40:49.888Z,10.50
2017-12-30T22:43:18.043Z,10.60
2017-12-30T22:45:46.312Z,10.60
2017-12-30T22:48:14.448Z,10.60
2017-12-30T22:50:43.380Z,10.70
2017-12-30T22:53:11.507Z,10.70
2017-12-30T22:55:40.942Z,10.70
2017-12-30T22:58:09.099Z,10.60
2017-12-30T23:00:57.903Z,10.60
2017-12-30T23:03:26.340Z,10.60
2017-12-30T23:05:55.267Z,10.50
2017-12-30T23:08:23.401Z,10.50
2017-12-30T23:10:52.321Z,10.30
2017-12-30T23:13:20.476Z,10.30
2017-12-30T23:15:49.405Z,10.40
2017-12-30T23:18:18.057Z,10.40
2017-12-30T23:20:46.217Z,10.40
2017-12-30T23:23:14.347Z,10.40
2017-12-30T23:25:42.516Z,10.50
2017-12-30T23:28:10.651Z,10.50
2017-12-30T23:30:39.589Z,10.50
2017-12-30T23:33:07.760Z,10.50
2017-12-30T23:35:35.924Z,10.50
2017-12-30T23:38:04.064Z,10.50
2017-12-30T23:40:32.995Z,10.60
2017-12-30T23:43:01.149Z,10.50
2017-12-30T23:45:30.084Z,10.60
2017-12-30T23:47:58.220Z,10.50
2017-12-30T23:50:26.371Z,10.50
2017-12-30T23:52:55.288Z,10.50
2017-12-30T23:55:23.454Z,10.50
2017-12-30T23:57:51.597Z,10.50
